Bolivia, North Carolina
Current Conditions -  °F | °C
As of 7:35 AM on Thursday 23 Oct 2014 (Local Time) from KSUT Reporting Station
Clear Clear  
Wind Chill: 43°   Ceiling: Unl
Heat Index: 47°   Visibility: 10mi
Dew Point: 41°   Wind: 9mph
Humidity: 80%   Direction: 340°NNW
Pressure: 30.01"   Gusts: NA
Location:  34.07°N, 78.15°W
Report Text: KSUT 231135Z AUTO 34008KT 10SM CLR 08/05 A3001 RMK AO2 T00830050
Loading
Personal Weather Stations






























Interactive Weather Map
Tropical Storm Tracking
New forecast layout! Learn more

10-Day Weather Forecast

Advertisements
Track Severe Weather on mobile